Time;durP1;ratioP1;P1;durP2;ratioP2;P2;SDS_P1;SDS_P2;PMS_P1;PMS_P2;Temp;Humidity;BMP_temperature;BMP_pressure;BME280_temperature;BME280_humidity;BME280_pressure;Samples;Min_cycle;Max_cycle;Signal;HPM_P1;HPM_P2
2020/12/01 00:01:12;;;;;;;34.35;15.52;;;;;;;-0.81;45.97;103365.19;5048574;28;20494;-82
2020/12/01 00:03:43;;;;;;;;;;;;;;;-0.19;45.29;103447.88;5050596;28;20498;-86
2020/12/01 00:06:10;;;;;;;34.78;16.02;;;;;;;-0.62;44.86;103375.63;5051690;28;19913;-88
2020/12/01 00:08:37;;;;;;;30.70;14.70;;;;;;;-0.84;45.55;103382.59;5049726;28;20021;-88
2020/12/01 00:11:07;;;;;;;35.78;15.82;;;;;;;-0.20;45.01;103427.06;5032679;28;20017;-85
2020/12/01 00:13:35;;;;;;;31.40;14.77;;;;;;;-1.26;44.90;103227.84;5050639;28;20025;-86
2020/12/01 00:16:02;;;;;;;32.28;14.88;;;;;;;-1.12;44.44;103237.72;5023748;28;20546;-85
2020/12/01 00:18:28;;;;;;;33.72;14.93;;;;;;;0.33;44.10;103457.75;5044960;28;20121;-85
2020/12/01 00:20:55;;;;;;;36.58;16.45;;;;;;;-0.06;43.61;103370.72;5028754;28;20032;-83
2020/12/01 00:23:22;;;;;;;31.35;17.05;;;;;;;-0.38;43.36;103286.81;5049765;28;20387;-84
2020/12/01 00:25:49;;;;;;;32.88;15.27;;;;;;;0.53;42.78;103448.94;5046228;28;20051;-82
2020/12/01 00:28:16;;;;;;;33.42;14.50;;;;;;;0.36;42.94;103469.28;5045485;28;20027;-85
2020/12/01 00:30:43;;;;;;;39.60;15.77;;;;;;;-0.22;43.09;103351.91;5049367;28;20095;-86
2020/12/01 00:33:11;;;;;;;31.80;16.05;;;;;;;-0.11;42.34;103323.88;5047452;28;20029;-87
2020/12/01 00:35:38;;;;;;;29.60;15.32;;;;;;;0.38;42.51;103482.81;5029244;28;20025;-87
2020/12/01 00:38:05;;;;;;;27.00;14.80;;;;;;;0.50;42.26;103470.09;5025977;28;20044;-88
2020/12/01 00:40:32;;;;;;;24.95;14.50;;;;;;;0.08;41.21;103405.97;5053267;28;20060;-87
2020/12/01 00:42:59;;;;;;;33.92;15.52;;;;;;;-0.12;41.68;103344.78;5052396;28;20048;-87
2020/12/01 00:45:26;;;;;;;27.70;14.13;;;;;;;0.21;41.32;103391.41;5036002;28;20646;-87
2020/12/01 00:47:53;;;;;;;31.63;15.70;;;;;;;-0.01;41.82;103379.38;5032728;28;20089;-88
2020/12/01 00:50:23;;;;;;;28.67;14.80;;;;;;;0.20;41.26;103376.94;5034137;28;20029;-87
2020/12/01 00:52:50;;;;;;;;;;;;;;;0.85;41.47;103463.84;5054371;28;20025;-87
2020/12/01 00:55:17;;;;;;;26.40;15.05;;;;;;;0.25;41.25;103371.13;5036161;28;19975;-89
2020/12/01 00:57:44;;;;;;;30.42;16.23;;;;;;;1.14;40.64;103485.28;5053241;28;20493;-88
2020/12/01 01:00:17;;;;;;;34.65;15.05;;;;;;;-0.43;39.93;103197.34;5053169;28;20013;-85
2020/12/01 01:02:44;;;;;;;36.47;14.63;;;;;;;0.32;39.48;103287.91;5035843;28;20016;-87
2020/12/01 01:05:11;;;;;;;28.65;16.27;;;;;;;1.23;39.46;103470.91;5035507;28;20430;-85
2020/12/01 01:07:38;;;;;;;33.08;16.40;;;;;;;0.48;38.55;103347.53;5034816;28;20037;-87
2020/12/01 01:10:06;;;;;;;31.90;15.40;;;;;;;-0.19;39.01;103205.50;5053543;28;20056;-84
2020/12/01 01:12:34;;;;;;;29.10;16.77;;;;;;;0.03;38.38;103194.81;5053440;28;20070;-85
2020/12/01 01:15:01;;;;;;;29.67;13.63;;;;;;;0.66;37.27;103279.81;5035186;28;20035;-86
2020/12/01 01:17:28;;;;;;;27.83;14.65;;;;;;;0.06;37.61;103173.63;5052260;28;20122;-84
2020/12/01 01:20:00;;;;;;;27.67;14.35;;;;;;;1.19;37.44;103354.75;5053486;28;20025;-85
2020/12/01 01:22:27;;;;;;;23.50;14.05;;;;;;;1.54;36.05;103366.53;5034933;28;20051;-85
2020/12/01 01:24:54;;;;;;;21.75;13.95;;;;;;;0.66;35.72;103263.44;5053117;28;20056;-84
2020/12/01 01:27:20;;;;;;;30.20;14.32;;;;;;;1.22;35.92;103332.69;5051953;28;20031;-86
2020/12/01 01:29:47;;;;;;;34.25;14.13;;;;;;;1.04;36.09;103313.22;5035336;28;20032;-85
2020/12/01 01:32:14;;;;;;;21.30;13.05;;;;;;;1.89;35.91;103395.56;5035223;28;20024;-86
2020/12/01 01:34:41;;;;;;;35.88;14.18;;;;;;;1.48;35.37;103286.00;5035219;28;20021;-86
2020/12/01 01:37:08;;;;;;;31.95;13.05;;;;;;;0.55;34.55;103162.56;5052708;28;20045;-85
2020/12/01 01:39:34;;;;;;;28.10;13.10;;;;;;;1.57;35.10;103395.47;5035066;28;20119;-86
2020/12/01 01:42:08;;;;;;;21.02;11.32;;;;;;;2.05;34.35;103438.03;5035047;28;20032;-85
2020/12/01 01:44:36;;;;;;;19.10;11.32;;;;;;;0.82;34.11;103232.22;5034177;28;20382;-83
2020/12/01 01:47:19;;;;;;;22.30;11.93;;;;;;;1.38;34.21;103311.47;5052042;28;20455;-85
2020/12/01 01:49:48;;;;;;;24.10;13.52;;;;;;;2.37;33.97;103444.53;5049614;28;20051;-84
2020/12/01 01:52:20;;;;;;;23.90;13.30;;;;;;;2.19;33.26;103357.59;5034208;28;20078;-85
2020/12/01 01:54:52;;;;;;;25.02;11.38;;;;;;;1.92;33.02;103309.75;5051647;28;20442;-83
2020/12/01 01:57:25;;;;;;;20.27;12.48;;;;;;;1.45;33.14;103187.09;5032234;28;20414;-84
2020/12/01 01:59:53;;;;;;;32.72;12.43;;;;;;;1.69;32.94;103232.44;5051800;28;20036;-83
2020/12/01 02:02:20;;;;;;;19.95;13.73;;;;;;;2.99;32.98;103422.88;5051305;28;20483;-81
2020/12/01 02:04:46;;;;;;;27.23;14.50;;;;;;;2.23;32.21;103380.06;5051521;28;20478;-84
2020/12/01 02:07:13;;;;;;;23.92;12.70;;;;;;;1.37;32.85;103250.56;5053438;28;20084;-83
2020/12/01 02:09:51;;;;;;;25.83;14.23;;;;;;;2.01;33.25;103390.94;5034628;28;20033;-83
2020/12/01 02:12:18;;;;;;;25.73;13.13;;;;;;;2.54;32.98;103440.38;5034799;28;20025;-82
2020/12/01 02:14:56;;;;;;;23.27;13.50;;;;;;;0.76;33.50;103148.16;5036042;28;20029;-84
2020/12/01 02:17:30;;;;;;;24.52;13.60;;;;;;;2.69;33.76;103384.34;5051436;28;20118;-83
2020/12/01 02:20:07;;;;;;;25.80;14.20;;;;;;;2.10;33.49;103318.25;5051106;28;20028;-84
2020/12/01 02:22:34;;;;;;;27.02;15.20;;;;;;;2.37;33.12;103325.09;5033927;28;20045;-83
2020/12/01 02:25:01;;;;;;;27.88;13.88;;;;;;;2.21;33.34;103352.88;5033662;28;20110;-81
2020/12/01 02:27:28;;;;;;;25.58;12.68;;;;;;;1.37;31.88;103185.03;5048775;28;20033;-83
2020/12/01 02:29:59;;;;;;;24.33;12.88;;;;;;;2.13;32.79;103364.44;5033234;28;20040;-85
2020/12/01 02:32:27;;;;;;;21.30;13.55;;;;;;;2.02;34.35;103369.97;5032677;28;20029;-83
2020/12/01 02:34:58;;;;;;;21.00;13.13;;;;;;;2.09;33.97;103342.97;5033337;28;20051;-85
2020/12/01 02:37:28;;;;;;;33.00;14.93;;;;;;;2.36;32.37;103390.88;5050552;28;20041;-84
2020/12/01 02:40:04;;;;;;;29.87;13.93;;;;;;;0.61;32.75;103104.81;5050923;28;20024;-85
2020/12/01 02:42:31;;;;;;;23.80;12.65;;;;;;;0.63;32.46;103094.66;5033835;28;20052;-83
2020/12/01 02:44:58;;;;;;;24.00;15.55;;;;;;;1.42;33.08;103179.19;5049305;28;20052;-85
2020/12/01 02:47:28;;;;;;;28.67;16.38;;;;;;;1.88;33.54;103280.94;5048825;28;20037;-86
2020/12/01 02:49:57;;;;;;;27.70;14.20;;;;;;;1.61;32.38;103167.56;5049051;28;20033;-84
2020/12/01 02:52:27;;;;;;;33.90;15.60;;;;;;;2.36;33.84;103262.34;5050940;28;20040;-84
2020/12/01 02:54:53;;;;;;;30.10;17.27;;;;;;;1.09;32.46;102990.88;5051079;28;20036;-84
2020/12/01 02:57:20;;;;;;;49.15;16.48;;;;;;;2.87;32.27;103288.00;5049649;28;20078;-81
2020/12/01 02:59:47;;;;;;;33.30;17.10;;;;;;;2.96;33.75;103270.75;5032502;28;20435;-82
2020/12/01 03:02:14;;;;;;;33.90;18.38;;;;;;;2.96;34.63;103310.91;5032596;28;20029;-83
2020/12/01 03:04:41;;;;;;;25.17;14.43;;;;;;;2.10;31.81;103117.88;5049840;28;20025;-82
2020/12/01 03:07:07;;;;;;;32.28;16.80;;;;;;;2.87;31.94;103228.66;5049544;28;20032;-81
2020/12/01 03:09:34;;;;;;;32.08;15.52;;;;;;;3.48;32.54;103304.50;5051857;28;20487;-81
2020/12/01 03:12:01;;;;;;;30.08;15.63;;;;;;;2.43;31.79;103154.16;5048632;28;20028;-83
2020/12/01 03:14:28;;;;;;;30.23;16.23;;;;;;;2.86;33.60;103246.06;5032084;28;20029;-81
2020/12/01 03:16:54;;;;;;;32.35;17.33;;;;;;;2.23;31.84;103083.00;5029925;28;20377;-81
2020/12/01 03:19:21;;;;;;;44.13;17.58;;;;;;;3.62;31.99;103290.41;5048956;28;20025;-81
2020/12/01 03:21:48;;;;;;;36.53;15.70;;;;;;;2.18;32.33;103061.53;5049818;28;20471;-83
2020/12/01 03:24:15;;;;;;;35.00;19.55;;;;;;;3.05;33.30;103208.84;5030145;28;20090;-81
2020/12/01 03:26:43;;;;;;;31.20;16.58;;;;;;;3.17;33.37;103189.56;5049469;28;20055;-82
2020/12/01 03:29:10;;;;;;;29.02;16.33;;;;;;;3.09;32.62;103204.81;5031704;28;20025;-84
2020/12/01 03:31:37;;;;;;;34.50;15.27;;;;;;;2.80;31.86;103200.09;5032419;28;20033;-83
2020/12/01 03:34:03;;;;;;;23.30;14.02;;;;;;;3.47;30.62;103245.25;5032580;28;20469;-82
2020/12/01 03:36:30;;;;;;;25.63;14.23;;;;;;;2.56;32.56;103116.50;5050308;28;20164;-83
2020/12/01 03:38:57;;;;;;;22.00;12.43;;;;;;;2.87;31.35;103178.53;5051420;28;20036;-82
2020/12/01 03:41:24;;;;;;;27.63;12.93;;;;;;;2.84;28.96;103162.38;5033184;28;20050;-83
2020/12/01 03:43:51;;;;;;;24.65;10.48;;;;;;;3.62;28.14;103238.38;5050512;28;20108;-81
2020/12/01 03:46:18;;;;;;;24.33;11.98;;;;;;;2.40;28.46;103007.66;5050083;28;20032;-81
2020/12/01 03:48:45;;;;;;;23.85;11.60;;;;;;;2.65;29.43;103051.91;5033928;28;20061;-89
2020/12/01 03:51:15;;;;;;;24.58;10.93;;;;;;;3.97;30.54;103220.50;5033943;28;20029;-85
2020/12/01 03:53:53;;;;;;;29.88;14.82;;;;;;;3.36;31.37;103142.19;5033924;28;20025;-87
2020/12/01 03:56:24;;;;;;;26.50;12.55;;;;;;;3.26;31.45;103143.03;5051480;28;20111;-85
2020/12/01 03:58:50;;;;;;;24.15;13.48;;;;;;;3.51;31.60;103170.03;5029035;28;20097;-85
2020/12/01 04:01:17;;;;;;;26.08;13.40;;;;;;;3.86;30.53;103215.16;5032236;28;20029;-85
2020/12/01 04:03:44;;;;;;;26.70;12.15;;;;;;;4.03;31.42;103223.69;5050290;28;20025;-84
2020/12/01 04:06:20;;;;;;;26.70;14.00;;;;;;;3.18;31.71;103062.63;5048994;28;20060;-83
2020/12/01 04:08:47;;;;;;;19.60;12.35;;;;;;;2.72;30.70;103027.56;5033197;28;20437;-89
2020/12/01 04:11:14;;;;;;;26.58;15.10;;;;;;;2.76;31.42;103052.78;5036572;28;20075;-85
2020/12/01 04:13:47;;;;;;;28.42;13.40;;;;;;;1.09;31.00;102750.75;5051486;28;20025;-84
2020/12/01 04:16:14;;;;;;;22.88;11.73;;;;;;;3.85;30.18;103191.50;5034873;28;20032;-86
2020/12/01 04:18:41;;;;;;;26.42;14.65;;;;;;;2.30;31.92;102963.88;5035916;28;20064;-86
2020/12/01 04:21:09;;;;;;;28.27;13.18;;;;;;;2.95;32.64;103035.53;5036737;28;20033;-86
2020/12/01 04:23:36;;;;;;;28.02;14.13;;;;;;;2.48;32.65;102949.53;5055078;28;20104;-85
2020/12/01 04:26:03;;;;;;;26.10;14.77;;;;;;;3.57;33.09;103155.75;5036923;28;20025;-86
2020/12/01 04:28:30;;;;;;;28.85;13.43;;;;;;;3.00;29.85;103115.34;5055619;28;20029;-85
2020/12/01 04:31:00;;;;;;;16.33;10.30;;;;;;;3.31;29.39;103107.00;5055175;28;20032;-84
2020/12/01 04:33:27;;;;;;;27.83;12.02;;;;;;;3.83;30.14;103164.28;5036444;28;20086;-85
2020/12/01 04:36:24;;;;;;;21.02;12.60;;;;;;;3.03;30.99;103004.72;5033077;28;20029;-85
2020/12/01 04:38:49;;;;;;;28.08;14.68;;;;;;;3.09;31.33;102972.13;5049427;28;20122;-83
2020/12/01 04:41:16;;;;;;;28.25;16.30;;;;;;;3.35;32.31;103018.09;5053201;28;20029;-83
2020/12/01 04:43:47;;;;;;;40.00;15.60;;;;;;;2.83;32.71;102942.63;5035238;28;20077;-84
2020/12/01 04:46:19;;;;;;;29.55;15.70;;;;;;;4.36;33.31;103161.97;5034605;28;20115;-86
2020/12/01 04:49:13;;;;;;;34.80;18.48;;;;;;;3.75;32.72;103083.78;5053231;28;20021;-86
2020/12/01 04:52:06;;;;;;;28.60;16.38;;;;;;;3.97;33.29;103162.06;5049887;28;20037;-87
2020/12/01 04:55:10;;;;;;;25.77;14.70;;;;;;;4.20;31.59;103159.00;5000881;28;20069;-85
2020/12/01 04:58:12;;;;;;;28.38;13.35;;;;;;;3.36;31.12;103008.00;5052838;28;20071;-85
2020/12/01 05:01:02;;;;;;;30.83;13.73;;;;;;;4.35;30.90;103157.50;5051446;28;20033;-87
2020/12/01 05:03:57;;;;;;;24.13;11.10;;;;;;;3.52;29.04;102991.81;5033912;28;20041;-85
2020/12/01 05:07:03;;;;;;;28.52;16.08;;;;;;;4.38;29.76;103153.59;5034016;28;20111;-83
2020/12/01 05:09:56;;;;;;;19.50;12.75;;;;;;;4.12;30.29;103148.78;5036326;28;20045;-87
2020/12/01 05:12:34;;;;;;;24.92;13.43;;;;;;;4.02;30.46;103136.94;5053064;28;20033;-85
2020/12/01 05:15:16;;;;;;;23.25;13.13;;;;;;;3.62;29.93;103053.97;5035263;28;20032;-85
2020/12/01 05:18:04;;;;;;;20.55;12.05;;;;;;;4.26;28.69;103144.69;5052474;28;20061;-85
2020/12/01 05:20:31;;;;;;;19.88;10.55;;;;;;;3.53;27.68;103047.47;5027748;28;20458;-86
2020/12/01 05:23:03;;;;;;;24.65;12.00;;;;;;;3.89;28.46;103091.56;5036939;28;20116;-87
2020/12/01 05:25:31;;;;;;;25.02;9.82;;;;;;;3.36;27.58;103011.63;5036154;28;20201;-85
2020/12/01 05:28:10;;;;;;;16.33;9.68;;;;;;;4.37;26.80;103128.06;5054164;28;20028;-85
2020/12/01 05:30:38;;;;;;;13.98;9.07;;;;;;;4.15;26.82;103129.28;5054300;28;20033;-85
2020/12/01 05:33:18;;;;;;;27.60;9.55;;;;;;;4.20;27.63;103123.34;5056073;28;20021;-85
2020/12/01 05:36:16;;;;;;;17.50;9.45;;;;;;;4.09;28.05;103119.78;5034878;28;20060;-85
2020/12/01 05:39:05;;;;;;;15.70;8.38;;;;;;;4.13;26.60;103114.88;5035636;28;20037;-85
2020/12/01 05:41:34;;;;;;;20.15;8.27;;;;;;;4.06;26.24;103132.91;5034563;28;20039;-86
2020/12/01 05:44:19;;;;;;;15.77;7.93;;;;;;;3.91;26.23;103045.66;5034364;28;20089;-85
2020/12/01 05:46:56;;;;;;;13.85;7.97;;;;;;;2.64;25.92;102866.03;5033766;28;20029;-84
2020/12/01 05:49:47;;;;;;;13.43;7.72;;;;;;;4.08;25.50;103111.69;5034902;28;20185;-87
2020/12/01 05:52:31;;;;;;;18.08;8.68;;;;;;;4.05;25.57;103114.75;5052835;28;20087;-87
2020/12/01 05:55:15;;;;;;;13.32;7.82;;;;;;;4.10;26.11;103115.19;5048741;28;20481;-88
2020/12/01 05:57:43;;;;;;;15.48;9.00;;;;;;;4.03;26.12;103105.81;5056213;28;20029;-85
2020/12/01 06:00:23;;;;;;;12.75;8.10;;;;;;;3.66;26.49;103028.88;5037514;28;20022;-86
2020/12/01 06:03:24;;;;;;;13.05;8.75;;;;;;;4.26;26.61;103103.56;5035941;28;20099;-85
2020/12/01 06:05:56;;;;;;;14.32;8.30;;;;;;;4.36;26.99;103103.53;5035654;28;20040;-84
2020/12/01 06:08:44;;;;;;;44.33;13.55;;;;;;;4.34;27.00;103102.81;5055927;28;20040;-86
2020/12/01 06:11:44;;;;;;;17.80;10.60;;;;;;;4.43;26.95;103107.41;5036539;28;20155;-87
2020/12/01 06:14:22;;;;;;;12.90;8.83;;;;;;;3.47;27.52;102964.03;5034998;28;20025;-85
2020/12/01 06:16:51;;;;;;;16.30;9.55;;;;;;;3.35;27.51;102957.88;5035986;28;20094;-86
2020/12/01 06:19:39;;;;;;;15.05;9.43;;;;;;;2.97;27.13;102904.91;5056623;28;20078;-85
2020/12/01 06:22:21;;;;;;;19.75;11.75;;;;;;;4.10;27.64;103101.47;5054638;28;20552;-87
2020/12/01 06:25:28;;;;;;;17.38;10.82;;;;;;;3.34;27.42;102939.72;5051801;28;20043;-86
2020/12/01 06:28:27;;;;;;;20.63;11.07;;;;;;;3.73;27.60;102989.91;5033318;28;20041;-86
2020/12/01 06:31:01;;;;;;;22.55;11.57;;;;;;;4.32;27.53;103071.91;5050829;28;20120;-86
2020/12/01 06:33:43;;;;;;;17.52;10.07;;;;;;;4.15;27.47;103079.09;5049995;28;20032;-85
2020/12/01 06:36:32;;;;;;;18.17;9.20;;;;;;;4.04;26.63;103074.63;5033276;28;20041;-87
2020/12/01 06:39:17;;;;;;;12.40;7.37;;;;;;;3.93;25.36;103086.63;5034004;28;20154;-87
2020/12/01 06:41:50;;;;;;;12.77;6.35;;;;;;;2.28;25.55;102814.69;5036796;28;20029;-85
2020/12/01 06:44:24;;;;;;;12.30;7.43;;;;;;;2.64;26.89;102885.19;5031404;28;20036;-88
2020/12/01 06:46:55;;;;;;;16.02;7.68;;;;;;;2.65;26.79;102926.06;5028854;28;20029;-87
2020/12/01 06:49:26;;;;;;;13.93;6.90;;;;;;;2.51;27.11;102883.63;5033671;28;20530;-89
2020/12/01 06:51:57;;;;;;;8.77;6.00;;;;;;;2.79;26.97;102889.22;5050853;28;20497;-86
2020/12/01 06:54:24;;;;;;;15.52;7.07;;;;;;;3.96;26.60;103070.75;5033132;28;20067;-85
2020/12/01 06:57:12;;;;;;;11.32;6.35;;;;;;;4.00;25.40;103074.06;5032264;28;20021;-86
2020/12/01 06:59:46;;;;;;;11.88;5.63;;;;;;;3.02;24.98;102935.41;5048664;28;20116;-87
2020/12/01 07:02:39;;;;;;;13.63;5.85;;;;;;;2.50;26.03;102865.47;5045394;28;20397;-86
2020/12/01 07:05:25;;;;;;;10.23;6.03;;;;;;;4.02;25.74;103073.91;5029552;28;20029;-85
2020/12/01 07:07:52;;;;;;;7.63;5.55;;;;;;;3.58;26.39;103012.31;5045050;28;20117;-85
2020/12/01 07:10:24;;;;;;;15.02;6.18;;;;;;;3.28;25.91;102948.50;5050449;28;20482;-85
2020/12/01 07:13:22;;;;;;;9.13;5.95;;;;;;;3.81;26.28;103050.31;5047399;28;20467;-85
2020/12/01 07:15:55;;;;;;;10.98;5.50;;;;;;;4.16;26.55;103087.13;5044202;28;20041;-85
2020/12/01 07:18:30;;;;;;;10.40;5.22;;;;;;;2.56;26.09;102861.31;5032769;28;20112;-86
2020/12/01 07:21:22;;;;;;;14.10;8.07;;;;;;;2.86;26.70;102905.94;5050751;28;20028;-85
2020/12/01 07:23:56;;;;;;;13.10;7.43;;;;;;;3.96;26.75;103102.78;5048594;28;20032;-83
2020/12/01 07:26:27;;;;;;;12.25;6.45;;;;;;;2.44;28.01;102885.19;5051076;28;20032;-86
2020/12/01 07:29:31;;;;;;;11.93;6.60;;;;;;;3.79;28.26;103072.38;5030196;28;20051;-85
2020/12/01 07:32:11;;;;;;;14.00;7.45;;;;;;;3.27;26.90;102985.97;5033096;28;20068;-85
2020/12/01 07:34:38;;;;;;;10.40;6.97;;;;;;;4.08;26.93;103108.94;5032293;28;20017;-86
2020/12/01 07:37:31;;;;;;;11.77;6.15;;;;;;;3.95;27.64;103101.06;5050022;28;20048;-86
2020/12/01 07:40:03;;;;;;;14.02;6.75;;;;;;;3.25;27.77;103007.16;5029369;28;20025;-84
2020/12/01 07:42:37;;;;;;;12.63;7.55;;;;;;;3.36;28.24;103036.25;5032664;28;20039;-85
2020/12/01 07:45:18;;;;;;;13.07;6.80;;;;;;;2.97;27.22;102937.75;5039393;28;20108;-86
2020/12/01 07:47:44;;;;;;;13.60;6.28;;;;;;;2.35;28.03;102845.91;5036093;28;20236;-87
2020/12/01 07:50:20;;;;;;;11.20;5.80;;;;;;;3.19;26.58;103002.25;5036723;28;20024;-86
2020/12/01 07:52:53;;;;;;;11.05;5.60;;;;;;;2.45;25.44;102873.25;5038289;28;20109;-85
2020/12/01 07:55:36;;;;;;;17.50;6.40;;;;;;;3.13;26.46;102992.75;5037698;28;20540;-88
2020/12/01 07:58:06;;;;;;;10.65;5.85;;;;;;;2.37;25.57;102875.84;5038806;28;20029;-88
2020/12/01 08:00:34;;;;;;;12.05;5.75;;;;;;;2.01;25.61;102828.03;5037398;28;20029;-86
2020/12/01 08:03:11;;;;;;;9.57;4.80;;;;;;;3.63;25.56;103070.22;5036382;28;20119;-86
2020/12/01 08:05:38;;;;;;;12.38;6.15;;;;;;;2.87;24.71;102957.75;5036978;28;20025;-85
2020/12/01 08:08:05;;;;;;;11.60;5.25;;;;;;;3.63;24.85;103058.44;5036722;28;20118;-84
2020/12/01 08:10:33;;;;;;;9.40;4.57;;;;;;;3.06;23.60;102966.97;5036739;28;20076;-84
2020/12/01 08:13:05;;;;;;;10.50;4.63;;;;;;;3.69;22.74;103068.81;5036381;28;20048;-87
2020/12/01 08:15:32;;;;;;;14.75;5.72;;;;;;;3.55;22.92;103040.84;5046547;28;20029;-86
2020/12/01 08:18:05;;;;;;;9.38;4.38;;;;;;;3.22;22.96;102968.25;5026217;28;20045;-86
2020/12/01 08:20:32;;;;;;;9.55;5.05;;;;;;;3.07;22.92;102993.34;5045783;28;20124;-86
2020/12/01 08:23:22;;;;;;;10.30;4.82;;;;;;;2.72;23.31;102902.63;5047334;28;20025;-85
2020/12/01 08:26:12;;;;;;;8.40;5.38;;;;;;;3.62;23.39;103051.22;5056147;28;20043;-86
2020/12/01 08:28:44;;;;;;;6.30;3.92;;;;;;;3.25;23.08;102976.16;5030755;28;20064;-86
2020/12/01 08:31:26;;;;;;;12.27;5.32;;;;;;;3.49;23.36;103024.13;5037918;28;20032;-85
2020/12/01 08:34:19;;;;;;;12.00;5.38;;;;;;;3.63;23.44;103055.69;5035408;28;20462;-86
2020/12/01 08:37:25;;;;;;;14.13;6.20;;;;;;;3.71;23.78;103044.84;5052425;28;20037;-85
2020/12/01 08:40:04;;;;;;;8.48;5.07;;;;;;;3.65;22.98;103046.31;5035591;28;20040;-85
2020/12/01 08:42:34;;;;;;;9.27;4.68;;;;;;;3.65;23.63;103039.97;5035092;28;20033;-86
2020/12/01 08:45:05;;;;;;;10.00;6.40;;;;;;;3.65;23.85;103051.81;5052066;28;20033;-86
2020/12/01 08:47:31;;;;;;;;;;;;;;;3.49;23.83;103049.66;5036252;28;20437;-86
2020/12/01 08:49:58;;;;;;;12.60;5.93;;;;;;;2.56;24.10;102900.44;5035576;28;19916;-86
2020/12/01 08:52:34;;;;;;;10.63;6.22;;;;;;;2.45;23.97;102867.78;5034440;28;20033;-84
2020/12/01 08:55:29;;;;;;;9.80;4.32;;;;;;;3.51;24.43;103033.06;5030325;28;20462;-85
2020/12/01 08:58:25;;;;;;;7.85;5.05;;;;;;;2.55;24.45;102863.16;5037711;28;20029;-88
2020/12/01 09:01:08;;;;;;;12.00;5.70;;;;;;;3.08;24.92;102936.72;5028068;28;20382;-85
2020/12/01 09:03:37;;;;;;;14.50;6.60;;;;;;;2.68;25.17;102879.28;5034305;28;20094;-94
2020/12/01 09:06:26;;;;;;;14.50;7.05;;;;;;;3.33;25.46;102976.28;5054102;28;20092;-92
2020/12/01 09:09:00;;;;;;;14.73;6.60;;;;;;;3.20;25.16;102970.28;5053851;28;20033;-89
2020/12/01 09:11:57;;;;;;;17.23;5.70;;;;;;;3.54;25.71;103016.34;5054199;28;20039;-92
2020/12/01 09:17:57;;;;;;;13.05;6.70;;;;;;;3.54;25.46;103025.44;5073974;28;20092;-92
2020/12/01 09:23:12;;;;;;;11.63;5.95;;;;;;;2.19;26.20;102816.38;5056694;28;20040;-91
2020/12/01 09:25:42;;;;;;;14.27;8.10;;;;;;;2.29;26.27;102863.75;5034733;28;20028;-94
2020/12/01 09:28:22;;;;;;;14.63;7.22;;;;;;;3.44;26.23;103038.25;5040145;28;20040;-94
2020/12/01 09:30:50;;;;;;;11.38;6.25;;;;;;;1.65;26.04;102753.94;5038771;28;20025;-91
2020/12/01 09:33:22;;;;;;;16.73;7.68;;;;;;;0.82;26.19;102654.91;5038944;28;20059;-94
2020/12/01 09:35:50;;;;;;;12.43;6.97;;;;;;;3.50;25.96;103061.47;5039369;28;20040;-94
2020/12/01 09:38:17;;;;;;;13.05;6.30;;;;;;;2.16;25.71;102836.69;5038990;28;20075;-89
2020/12/01 09:41:09;;;;;;;18.77;7.55;;;;;;;1.98;26.32;102813.78;5061378;28;20483;-94
2020/12/01 09:43:43;;;;;;;11.98;6.35;;;;;;;1.67;26.30;102772.91;5044136;28;20033;-96
2020/12/01 09:46:12;;;;;;;14.88;8.60;;;;;;;2.97;27.06;102976.91;5039339;28;20092;-89
2020/12/01 09:48:47;;;;;;;23.02;7.88;;;;;;;2.03;27.44;102820.53;5042807;28;20017;-94
2020/12/01 09:51:16;;;;;;;11.85;6.50;;;;;;;1.84;27.74;102779.56;5026413;28;20060;-95
2020/12/01 09:56:16;;;;;;;11.63;6.18;;;;;;;3.02;27.84;102984.69;5054679;28;21543;-90
2020/12/01 09:59:07;;;;;;;17.15;7.90;;;;;;;2.12;28.13;102842.56;5037451;28;20025;-91
2020/12/01 10:30:59;;;;;;;15.85;9.05;;;;;;;2.93;31.71;103007.44;5013144;28;20376;-87
2020/12/01 10:33:56;;;;;;;19.50;9.45;;;;;;;2.23;31.91;102893.50;5052621;28;20079;-88
2020/12/01 10:35:24;;;;;;;18.63;10.20;;;;;;;2.90;31.50;102980.38;5052777;28;20039;-89
2020/12/01 10:38:00;;;;;;;19.98;9.27;;;;;;;2.85;31.99;102983.53;5035710;28;20041;-94
2020/12/01 10:40:28;;;;;;;20.77;9.25;;;;;;;2.56;32.17;102922.31;5038069;28;20032;-95
2020/12/01 10:42:56;;;;;;;22.02;8.93;;;;;;;2.43;32.55;102913.53;5038692;28;20095;-92
2020/12/01 10:45:25;;;;;;;17.42;10.65;;;;;;;2.48;32.46;102913.97;5037654;28;20021;-92
2020/12/01 10:47:52;;;;;;;24.27;10.98;;;;;;;0.51;32.57;102594.97;5038344;28;20071;-94
2020/12/01 10:50:22;;;;;;;19.25;9.88;;;;;;;3.28;32.55;103067.09;5037046;28;20383;-92
2020/12/01 10:52:49;;;;;;;22.60;9.35;;;;;;;2.98;32.81;102995.06;5037172;28;20028;-93
2020/12/01 10:55:21;;;;;;;21.02;9.75;;;;;;;2.89;33.01;102992.34;5038384;28;20036;-90
2020/12/01 10:57:53;;;;;;;21.77;10.20;;;;;;;3.09;32.88;103007.72;5037659;28;20033;-92
2020/12/01 11:00:22;;;;;;;22.90;9.95;;;;;;;3.38;32.51;103064.34;5037880;28;20391;-92
2020/12/01 11:02:49;;;;;;;17.27;8.40;;;;;;;2.71;32.21;102971.13;5038786;28;20021;-90
2020/12/01 11:08:14;;;;;;;22.02;8.63;;;;;;;3.38;32.69;103064.34;5259881;23;20068;-94
2020/12/01 11:10:42;;;;;;;16.90;8.45;;;;;;;2.29;31.78;102873.81;5038073;28;20021;-93
2020/12/01 11:13:09;;;;;;;16.77;8.65;;;;;;;0.68;31.80;102579.81;5037713;28;20033;-95
2020/12/01 11:15:38;;;;;;;17.95;9.80;;;;;;;2.94;29.93;102982.69;5052825;28;20466;-92
2020/12/01 11:18:06;;;;;;;20.52;9.32;;;;;;;3.25;29.83;103056.44;5029041;28;20083;-93
2020/12/01 11:20:34;;;;;;;18.83;10.15;;;;;;;1.48;30.08;102767.25;5027440;28;20053;-92
2020/12/01 11:23:01;;;;;;;16.88;8.63;;;;;;;2.59;30.05;102963.06;5028766;28;20071;-94
2020/12/01 11:25:28;;;;;;;22.13;8.50;;;;;;;1.57;28.74;102779.22;5033008;28;20013;-94
2020/12/01 11:28:01;;;;;;;19.45;8.50;;;;;;;3.32;28.72;103034.81;5035954;28;20033;-93
2020/12/01 11:30:28;;;;;;;16.70;9.05;;;;;;;2.38;27.92;102893.97;5014324;28;20056;-95
2020/12/01 11:32:55;;;;;;;17.83;7.38;;;;;;;2.89;27.71;102989.59;5002908;28;20034;-95
2020/12/01 11:35:23;;;;;;;17.55;7.88;;;;;;;2.94;27.93;102992.75;5013056;28;20033;-92
2020/12/01 11:37:52;;;;;;;17.00;7.75;;;;;;;2.80;27.34;102980.38;5012254;28;20025;-92
2020/12/01 11:40:19;;;;;;;15.60;7.68;;;;;;;3.34;27.59;103049.25;5017515;28;20033;-91
2020/12/01 11:42:46;;;;;;;14.40;7.53;;;;;;;2.84;28.42;102949.84;5022307;28;20610;-90
2020/12/01 11:45:16;;;;;;;23.50;11.18;;;;;;;3.20;28.08;103030.50;5015466;28;20033;-92
2020/12/01 11:47:44;;;;;;;;;;;;;;;3.22;28.41;103028.47;5014219;28;20495;-89
2020/12/01 11:50:11;;;;;;;17.38;7.80;;;;;;;3.24;28.33;103042.88;5015054;28;19917;-91
2020/12/01 11:52:39;;;;;;;18.90;8.32;;;;;;;3.25;28.47;103026.31;5015490;28;20030;-93
2020/12/01 11:55:07;;;;;;;24.80;9.75;;;;;;;2.16;28.43;102858.56;5016248;28;20168;-92
2020/12/01 11:57:34;;;;;;;22.75;8.35;;;;;;;1.37;28.98;102753.75;5016595;28;20033;-94
2020/12/01 12:00:00;;;;;;;18.63;9.10;;;;;;;2.54;29.09;102948.97;5016064;28;20483;-93
2020/12/01 12:02:27;;;;;;;23.60;8.82;;;;;;;3.11;29.38;103040.44;5016837;28;20545;-91
2020/12/01 12:04:54;;;;;;;24.27;8.73;;;;;;;3.06;29.79;103043.63;5029192;28;20021;-95
2020/12/01 12:07:25;;;;;;;17.55;9.30;;;;;;;3.06;29.66;103029.94;5017998;28;20049;-91
2020/12/01 12:09:54;;;;;;;18.48;11.48;;;;;;;3.18;29.78;103044.34;5026655;28;20041;-94
2020/12/01 12:12:24;;;;;;;24.60;9.40;;;;;;;2.56;29.85;102938.72;5025815;28;20057;-91
2020/12/01 12:14:51;;;;;;;19.15;10.77;;;;;;;2.97;30.48;102981.53;5028183;28;20055;-93
2020/12/01 12:17:17;;;;;;;18.38;11.25;;;;;;;2.23;29.91;102869.78;5022621;28;20105;-94
2020/12/01 12:19:45;;;;;;;20.10;9.07;;;;;;;2.83;30.13;102970.00;5023826;28;20068;-90
2020/12/01 12:22:12;;;;;;;22.83;9.73;;;;;;;3.09;29.93;103023.31;5026703;28;20032;-91
2020/12/01 12:24:38;;;;;;;24.58;9.98;;;;;;;3.20;29.88;103027.78;5020557;28;20033;-89
2020/12/01 12:27:05;;;;;;;23.67;11.52;;;;;;;2.24;30.33;102868.78;5024464;28;20033;-85
2020/12/01 12:29:32;;;;;;;26.08;10.35;;;;;;;1.21;29.96;102695.06;5019585;28;20030;-86